Latest Coastal Weather Observations for Newcastle Nobbys

IDN60701

Issued at 11:21 am EST Monday 2 May 2016 (issued every 10 minutes, with the page automatically refreshed every 10 minutes)

About coastal observations | Map of coastal stations | Coastal observations for NSW | Marine services | Other Formats
Station Details ID: 061055 Name: NEWCASTLE NOBBYS SIGNAL STATION AWS Lat: -32.92 Lon: 151.80 Height: 33.0 m
Data from the previous 72 hours. | See also: Recent months at Newcastle Nobbys
Date/Time
EST
Temp

°C
Wind Pressure Rain
since 9am
mm
Weather Cloud Vis
km
Sea
Height
m
Swell
Dir
 
Speed
knots
Gust
knots
hPa Trend Height
m
Period
s
Dir
02/11:00am 22.5 ENE 5 6 - - 0.0 - - - - - - -
02/10:30am 22.8 NE 3 5 - - 0.0 - - - - - - -
02/10:00am 21.8 NE 2 3 - - 0.0 - - - - - - -
02/09:30am 21.2 N 2 3 - - 0.0 - - - - - - -
02/09:00am 20.3 NW 2 3 - - 1.8 - - - - - - -
02/08:30am 19.0 NW 4 6 - - 1.8 - - - - - - -
02/08:00am 18.1 W 5 7 - - 1.8 - - - - - - -
02/07:30am 17.7 WNW 2 6 - - 1.8 - - - - - - -
02/07:00am 17.4 WNW 2 3 - - 1.8 - - - - - - -
02/06:30am 17.4 WNW 1 2 - - 1.8 - - - - - - -
02/06:00am 17.1 WNW 3 3 - - 1.8 - - - - - - -
02/05:30am 18.0 WSW 3 4 - - 1.8 - - - - - - -
02/05:00am 18.8 SSW 7 10 - - 1.8 - - - - - - -
02/04:30am 18.7 W 3 5 - - 1.8 - - - - - - -
02/04:00am 18.9 SW 3 4 - - 1.8 - - - - - - -
02/03:30am 18.7 W 3 4 - - 1.8 - - - - - - -
02/03:00am 18.4 W 5 5 - - 1.8 - - - - - - -
02/02:30am 18.0 WSW 4 6 - - 1.8 - - - - - - -
02/02:00am 18.2 WNW 5 6 - - 1.8 - - - - - - -
02/01:30am 18.9 WNW 5 7 - - 1.8 - - - - - - -
02/01:00am 19.3 NNW 4 5 - - 1.8 - - - - - - -
02/12:30am 19.5 NW 7 9 - - 1.8 - - - - - - -
02/12:00am 19.8 NNW 7 8 - - 1.8 - - - - - - -
 
Date/Time
EST
Temp

°C
Wind Pressure Rain
since 9am
mm
Weather Cloud Vis
km
Sea
Height
m
Swell
Dir
 
Speed
knots
Gust
knots
hPa Trend Height
m
Period
s
Dir
01/11:30pm 20.2 NW 6 9 - - 1.8 - - - - - - -
01/11:00pm 20.4 NNW 4 7 - - 1.8 - - - - - - -
01/10:30pm 20.2 WSW 1 3 - - 1.8 - - - - - - -
01/10:00pm 20.4 WNW 10 15 - - 1.8 - - - - - - -
01/09:30pm 20.8 NW 11 19 - - 1.8 - - - - - - -
01/09:00pm 21.1 NW 13 20 - - 1.8 - - - - - - -
01/08:30pm 21.4 NW 15 19 - - 1.8 - - - - - - -
01/08:00pm 21.1 NW 14 19 - - 1.8 - - - - - - -
01/07:30pm 21.3 NW 14 18 - - 1.8 - - - - - - -
01/07:00pm 21.4 NW 10 14 - - 1.8 - - - - - - -
01/06:30pm 21.8 NW 12 17 - - 1.8 - - - - - - -
01/06:00pm 21.8 NW 12 16 - - 1.8 - - - - - - -
01/05:30pm 22.0 NW 13 17 - - 1.8 - - - - - - -
01/05:00pm 21.8 NW 14 18 - - 1.8 - - - - - - -
01/04:30pm 21.7 NW 13 16 - - 1.8 - - - - - - -
01/04:00pm 21.8 NNW 12 15 - - 1.8 - - - - - - -
01/03:30pm 21.8 NW 12 17 - - 1.8 - - - - - - -
01/03:00pm 22.1 NW 14 20 - - 1.8 - - - - - - -
01/02:30pm 21.8 NW 14 19 - - 1.8 - - - - - - -
01/02:00pm 21.5 NW 13 20 - - 1.8 - - - - - - -
01/01:30pm 21.0 NNW 10 14 - - 1.8 - - - - - - -
01/01:00pm 20.5 NW 11 15 - - 1.8 - - - - - - -
01/12:30pm 20.2 NNW 12 15 - - 1.8 - - - - - - -
01/12:00pm 20.2 NNW 9 12 - - 1.8 - - - - - - -
01/11:30am 19.9 N 11 15 - - 1.8 - - - - - - -
01/11:00am 19.4 N 12 15 - - 1.8 - - - - - - -
01/10:30am 19.0 N 11 14 - - 1.8 - - - - - - -
01/10:00am 18.7 N 10 12 - - 1.6 - - - - - - -
01/09:30am 18.6 NW 10 14 - - 0.8 - - - - - - -
01/09:00am 18.8 NNW 11 13 - - 4.6 Recent precip. - - - - - -
01/08:30am 18.9 NW 6 8 - - 4.2 - - - - - - -
01/08:00am 19.0 NW 10 13 - - 3.4 - - - - - - -
01/07:30am 18.4 WNW 15 21 - - 0.6 - - - - - - -
01/07:15am 18.3 WNW 14 23 - - 0.6 - - - - - - -
01/07:00am 18.1 NW 9 11 - - 0.4 - - - - - - -
01/06:30am 18.5 NNW 10 12 - - 0.4 - - - - - - -
01/06:00am 18.0 N 8 11 - - 0.4 - - - - - - -
01/05:30am 18.2 NNW 8 10 - - 0.4 - - - - - - -
01/05:00am 18.3 N 6 8 - - 0.4 - - - - - - -
01/04:30am 18.4 N 7 9 - - 0.4 - - - - - - -
01/04:00am 18.5 N 8 9 - - 0.4 - - - - - - -
01/03:30am 18.3 N 7 9 - - 0.4 - - - - - - -
01/03:00am 18.2 N 10 11 - - 0.4 - - - - - - -
01/02:30am 18.2 N 9 11 - - 0.4 - - - - - - -
01/02:00am 18.2 N 8 10 - - 0.4 - - - - - - -
01/01:30am 18.4 N 8 9 - - 0.4 - - - - - - -
01/01:00am 18.6 NNW 7 9 - - 0.4 - - - - - - -
01/12:30am 18.6 NNW 6 9 - - 0.4 - - - - - - -
01/12:00am 18.7 NW 6 9 - - 0.4 - - - - - - -
 
Date/Time
EST
Temp

°C
Wind Pressure Rain
since 9am
mm
Weather Cloud Vis
km
Sea
Height
m
Swell
Dir
 
Speed
knots
Gust
knots
hPa Trend Height
m
Period
s
Dir
30/11:30pm 18.8 NW 5 7 - - 0.4 - - - - - - -
30/11:00pm 19.0 NW 6 7 - - 0.4 - - - - - - -
30/10:30pm 19.3 NW 7 9 - - 0.4 - - - - - - -
30/10:00pm 19.4 NW 8 11 - - 0.4 - - - - - - -
30/09:30pm 20.0 NW 9 12 - - 0.4 - - - - - - -
30/09:00pm 20.0 NW 9 12 - - 0.4 - - - - - - -
30/08:30pm 19.9 NW 8 10 - - 0.4 - - - - - - -
30/08:00pm 20.0 NNW 9 11 - - 0.4 - - - - - - -
30/07:30pm 20.0 N 7 9 - - 0.4 - - - - - - -
30/07:00pm 20.0 NNW 5 7 - - 0.4 - - - - - - -
30/06:30pm 20.3 NW 7 8 - - 0.4 - - - - - - -
30/06:00pm 20.3 NW 7 9 - - 0.4 - - - - - - -
30/05:30pm 20.3 WNW 6 8 - - 0.4 - - - - - - -
30/05:00pm 20.3 NW 11 13 - - 0.4 - - - - - - -
30/04:30pm 20.2 NW 11 13 - - 0.4 - - - - - - -
30/04:00pm 20.1 NW 15 19 - - 0.4 - - - - - - -
30/03:30pm 20.4 NW 13 17 - - 0.4 - - - - - - -
30/03:00pm 20.4 NW 10 14 - - 0.4 Recent precip. - - - - - -
30/02:30pm 20.3 NW 10 13 - - 0.2 - - - - - - -
30/02:00pm 21.8 NW 11 15 - - 0.0 - - - - - - -
30/01:30pm 22.8 NW 11 16 - - 0.0 - - - - - - -
30/01:00pm 22.5 NW 11 14 - - 0.0 - - - - - - -
30/12:30pm 23.1 WNW 11 16 - - 0.0 - - - - - - -
30/12:00pm 23.5 WNW 9 12 - - 0.0 - - - - - - -
30/11:30am 23.5 WNW 11 15 - - 0.0 - - - - - - -
30/11:00am 22.8 NW 10 13 - - 0.0 - - - - - - -
30/10:30am 22.5 NW 7 9 - - 0.0 - - - - - - -
30/10:00am 21.6 NW 7 9 - - 0.0 - - - - - - -
30/09:30am 21.2 NW 6 9 - - 0.0 - - - - - - -
30/09:00am 20.6 NW 4 6 - - 0.0 - - - - - - -
30/08:30am 19.5 NNW 6 7 - - 0.0 - - - - - - -
30/08:00am 18.6 NW 7 9 - - 0.0 - - - - - - -
30/07:30am 18.3 NNW 6 7 - - 0.0 - - - - - - -
30/07:00am 18.6 NNW 7 9 - - 0.0 - - - - - - -
30/06:30am 18.4 NW 6 9 - - 0.0 - - - - - - -
30/06:00am 18.2 NW 6 8 - - 0.0 - - - - - - -
30/05:30am 18.4 NNW 6 7 - - 0.0 - - - - - - -
30/05:00am 18.8 NNW 5 6 - - 0.0 - - - - - - -
30/04:30am 18.9 NNW 5 7 - - 0.0 - - - - - - -
30/04:00am 19.1 N 7 8 - - 0.0 - - - - - - -
30/03:30am 19.4 N 5 7 - - 0.0 - - - - - - -
30/03:00am 19.1 N 6 7 - - 0.0 - - - - - - -
30/02:30am 19.3 N 5 6 - - 0.0 - - - - - - -
30/02:00am 19.5 NNE 6 7 - - 0.0 - - - - - - -
30/01:30am 19.7 N 4 5 - - 0.0 - - - - - - -
30/01:00am 20.1 N 5 7 - - 0.0 - - - - - - -
30/12:30am 20.5 NNE 8 9 - - 0.0 - - - - - - -
30/12:00am 20.5 NNE 6 8 - - 0.0 - - - - - - -
 
Date/Time
EST
Temp

°C
Wind Pressure Rain
since 9am
mm
Weather Cloud Vis
km
Sea
Height
m
Swell
Dir
 
Speed
knots
Gust
knots
hPa Trend Height
m
Period
s
Dir
29/11:30pm 20.6 NNE 6 8 - - 0.0 - - - - - - -
29/11:00pm 21.2 NE 6 9 - - 0.0 - - - - - - -
29/10:30pm 21.3 NE 7 9 - - 0.0 - - - - - - -
29/10:00pm 21.4 NE 5 7 - - 0.0 - - - - - - -
29/09:30pm 21.4 NE 5 8 - - 0.0 - - - - - - -
29/09:00pm 21.4 NE 6 8 - - 0.0 - - - - - - -
29/08:30pm 21.6 NE 6 9 - - 0.0 - - - - - - -
29/08:00pm 21.6 NE 6 9 - - 0.0 - - - - - - -
29/07:30pm 21.8 NE 6 8 - - 0.0 - - - - - - -
29/07:00pm 22.0 NE 6 9 - - 0.0 - - - - - - -
29/06:30pm 22.2 NE 7 10 - - 0.0 - - - - - - -
29/06:00pm 22.2 NE 8 11 - - 0.0 - - - - - - -
29/05:30pm 22.3 ENE 8 11 - - 0.0 - - - - - - -
29/05:00pm 22.6 ENE 6 8 - - 0.0 - - - - - - -
29/04:30pm 22.9 ENE 7 9 - - 0.0 - - - - - - -
29/04:00pm 22.9 ENE 9 11 - - 0.0 - - - - - - -
29/03:30pm 23.2 ENE 8 9 - - 0.0 - - - - - - -
29/03:00pm 23.4 ENE 8 9 - - 0.0 - - - - - - -
29/02:30pm 23.4 ENE 9 11 - - 0.0 - - - - - - -
29/02:00pm 23.6 ENE 8 10 - - 0.0 - - - - - - -
29/01:30pm 22.7 E 8 9 - - 0.0 - - - - - - -
29/01:00pm 23.4 E 6 7 - - 0.0 - - - - - - -
29/12:30pm 25.1 E 3 4 - - 0.0 - - - - - - -
29/12:00pm 25.7 NNE 3 5 - - 0.0 - - - - - - -
29/11:30am 24.6 NNE 5 7 - - 0.0 - - - - - - -

Other Formats:

Comma delimited format used in spreadsheet applications
http://www.bom.gov.au/fwo/IDN60701/IDN60701.94774.axf

JavaScript Object Notation format (JSON) in row-major order
http://www.bom.gov.au/fwo/IDN60701/IDN60701.94774.json